createdAt,value
2018-12-05T00:00:16.039Z,99.90
2018-12-05T00:02:42.500Z,99.90
2018-12-05T00:05:08.881Z,99.90
2018-12-05T00:07:35.251Z,99.90
2018-12-05T00:10:01.659Z,99.90
2018-12-05T00:12:28.032Z,99.90
2018-12-05T00:14:54.395Z,99.90
2018-12-05T00:17:20.767Z,99.90
2018-12-05T00:19:47.157Z,99.90
2018-12-05T00:22:13.502Z,99.90
2018-12-05T00:24:39.886Z,99.90
2018-12-05T00:27:06.252Z,99.90
2018-12-05T00:29:32.701Z,99.90
2018-12-05T00:31:59.136Z,99.90
2018-12-05T00:34:25.510Z,99.90
2018-12-05T00:36:51.881Z,99.90
2018-12-05T00:39:18.371Z,99.90
2018-12-05T00:41:44.844Z,99.90
2018-12-05T00:44:11.203Z,99.90
2018-12-05T00:46:37.687Z,99.90
2018-12-05T00:49:04.062Z,99.90
2018-12-05T00:51:30.441Z,99.90
2018-12-05T00:53:56.824Z,99.90
2018-12-05T00:56:23.206Z,99.90
2018-12-05T00:58:49.553Z,99.90
2018-12-05T01:01:15.995Z,99.90
2018-12-05T01:03:42.444Z,99.90
2018-12-05T01:06:08.831Z,99.90
2018-12-05T01:08:35.179Z,99.90
2018-12-05T01:11:01.544Z,99.90
2018-12-05T01:13:27.907Z,99.90
2018-12-05T01:15:54.299Z,99.90
2018-12-05T01:18:20.663Z,99.90
2018-12-05T01:20:47.042Z,99.90
2018-12-05T01:23:13.420Z,99.90
2018-12-05T01:25:39.753Z,99.90
2018-12-05T01:28:06.118Z,99.90
2018-12-05T01:30:32.482Z,99.90
2018-12-05T01:32:58.851Z,99.90
2018-12-05T01:35:25.751Z,99.90
2018-12-05T01:37:52.159Z,99.90
2018-12-05T01:40:18.537Z,99.90
2018-12-05T01:42:44.927Z,99.90
2018-12-05T01:45:11.309Z,99.90
2018-12-05T01:47:37.803Z,99.90
2018-12-05T01:50:11.882Z,99.90
2018-12-05T01:52:38.267Z,99.90
2018-12-05T01:55:04.772Z,99.90
2018-12-05T01:57:31.152Z,99.90
2018-12-05T02:00:05.683Z,99.90
2018-12-05T02:02:32.070Z,99.90
2018-12-05T02:04:58.432Z,99.90
2018-12-05T02:07:24.820Z,99.90
2018-12-05T02:09:51.200Z,99.90
2018-12-05T02:12:17.590Z,99.90
2018-12-05T02:14:43.944Z,99.90
2018-12-05T02:17:10.442Z,99.90
2018-12-05T02:19:36.943Z,99.90
2018-12-05T02:22:03.452Z,99.90
2018-12-05T02:24:29.830Z,99.90
2018-12-05T02:26:56.286Z,99.90
2018-12-05T02:29:24.915Z,99.90
2018-12-05T02:31:51.394Z,99.90
2018-12-05T02:34:17.790Z,99.90
2018-12-05T02:36:44.173Z,99.90
2018-12-05T02:39:10.548Z,99.90
2018-12-05T02:41:36.915Z,99.90
2018-12-05T02:44:03.404Z,99.90
2018-12-05T02:46:29.764Z,99.90
2018-12-05T02:48:56.162Z,99.90
2018-12-05T02:51:22.552Z,99.90
2018-12-05T02:53:56.083Z,99.90
2018-12-05T02:56:22.433Z,99.90
2018-12-05T02:58:48.811Z,99.90
2018-12-05T03:01:15.158Z,99.90
2018-12-05T03:03:41.535Z,99.90
2018-12-05T03:06:07.888Z,99.90
2018-12-05T03:08:41.220Z,99.90
2018-12-05T03:11:07.657Z,99.90
2018-12-05T03:13:34.015Z,99.90
2018-12-05T03:16:00.359Z,99.90
2018-12-05T03:18:33.611Z,99.90
2018-12-05T03:20:59.967Z,99.90
2018-12-05T03:23:26.447Z,99.90
2018-12-05T03:25:52.808Z,99.90
2018-12-05T03:28:19.181Z,99.90
2018-12-05T03:30:45.551Z,99.90
2018-12-05T03:33:11.989Z,99.90
2018-12-05T03:35:38.466Z,99.90
2018-12-05T03:38:05.361Z,99.90
2018-12-05T03:40:31.750Z,99.90
2018-12-05T03:42:58.253Z,99.90
2018-12-05T03:45:24.653Z,99.90
2018-12-05T03:47:51.019Z,99.90
2018-12-05T03:50:17.421Z,99.90
2018-12-05T03:52:43.892Z,99.90
2018-12-05T03:55:10.291Z,99.90
2018-12-05T03:57:36.647Z,99.90
2018-12-05T04:00:03.671Z,99.90
2018-12-05T04:02:30.031Z,99.90
2018-12-05T04:04:56.387Z,99.90
2018-12-05T04:07:22.744Z,99.90
2018-12-05T04:09:49.273Z,99.90
2018-12-05T04:12:15.841Z,99.90
2018-12-05T04:14:42.222Z,99.90
2018-12-05T04:17:08.660Z,99.90
2018-12-05T04:19:35.094Z,99.90
2018-12-05T04:22:01.439Z,99.90
2018-12-05T04:24:27.827Z,99.90
2018-12-05T04:26:54.186Z,99.90
2018-12-05T04:29:20.659Z,99.90
2018-12-05T04:31:46.991Z,99.90
2018-12-05T04:34:13.367Z,99.90
2018-12-05T04:36:39.714Z,99.90
2018-12-05T04:39:13.067Z,99.90
2018-12-05T04:41:39.543Z,99.90
2018-12-05T04:44:05.913Z,99.90
2018-12-05T04:46:32.280Z,99.90
2018-12-05T04:48:58.685Z,99.90
2018-12-05T04:51:25.096Z,99.90
2018-12-05T04:53:51.469Z,99.90
2018-12-05T04:56:17.854Z,99.90
2018-12-05T04:58:44.213Z,99.90
2018-12-05T05:01:10.596Z,99.90
2018-12-05T05:03:36.935Z,99.90
2018-12-05T05:06:03.345Z,99.90
2018-12-05T05:08:29.700Z,99.90
2018-12-05T05:10:56.061Z,99.90
2018-12-05T05:13:22.411Z,99.90
2018-12-05T05:15:48.785Z,99.90
2018-12-05T05:18:15.132Z,99.90
2018-12-05T05:20:41.507Z,99.90
2018-12-05T05:23:07.851Z,99.90
2018-12-05T05:25:34.233Z,99.90
2018-12-05T05:28:00.588Z,99.90
2018-12-05T05:30:26.963Z,99.90
2018-12-05T05:32:53.330Z,99.90
2018-12-05T05:35:20.036Z,99.90
2018-12-05T05:37:46.399Z,99.90
2018-12-05T05:40:12.781Z,99.90
2018-12-05T05:42:39.150Z,99.90
2018-12-05T05:45:05.723Z,99.90
2018-12-05T05:47:32.095Z,99.90
2018-12-05T05:49:58.495Z,99.90
2018-12-05T05:52:24.957Z,99.90
2018-12-05T05:54:51.299Z,99.90
2018-12-05T05:57:17.687Z,99.90
2018-12-05T05:59:44.035Z,99.90
2018-12-05T06:02:10.423Z,99.90
2018-12-05T06:04:36.767Z,99.90
2018-12-05T06:07:03.173Z,99.90
2018-12-05T06:09:29.523Z,99.90
2018-12-05T06:11:55.895Z,99.90
2018-12-05T06:14:22.246Z,99.90
2018-12-05T06:16:48.611Z,99.90
2018-12-05T06:19:14.967Z,99.90
2018-12-05T06:21:41.369Z,99.90
2018-12-05T06:24:07.730Z,99.90
2018-12-05T06:26:34.112Z,99.90
2018-12-05T06:29:00.463Z,99.90
2018-12-05T06:31:26.826Z,99.90
2018-12-05T06:33:53.177Z,99.90
2018-12-05T06:36:19.556Z,99.90
2018-12-05T06:38:45.907Z,99.90
2018-12-05T06:41:12.344Z,99.90
2018-12-05T06:43:38.843Z,99.90
2018-12-05T06:46:05.196Z,99.90
2018-12-05T06:48:31.557Z,99.90
2018-12-05T06:50:57.940Z,99.90
2018-12-05T06:53:24.303Z,99.90
2018-12-05T06:55:50.653Z,99.90
2018-12-05T06:58:17.027Z,99.90
2018-12-05T07:00:43.384Z,99.90
2018-12-05T07:03:09.761Z,99.90
2018-12-05T07:05:36.215Z,99.90
2018-12-05T07:08:02.632Z,99.90
2018-12-05T07:10:28.987Z,99.90
2018-12-05T07:12:55.355Z,99.90
2018-12-05T07:15:21.753Z,99.90
2018-12-05T07:17:48.139Z,99.90
2018-12-05T07:20:14.491Z,99.90
2018-12-05T07:22:40.898Z,99.90
2018-12-05T07:25:07.286Z,99.90
2018-12-05T07:27:33.697Z,99.90
2018-12-05T07:30:00.097Z,99.90
2018-12-05T07:32:26.500Z,99.90
2018-12-05T07:34:52.859Z,99.90
2018-12-05T07:37:19.318Z,99.90
2018-12-05T07:39:45.687Z,99.90
2018-12-05T07:42:12.034Z,99.90
2018-12-05T07:44:38.400Z,99.90
2018-12-05T07:47:04.876Z,99.90
2018-12-05T07:49:31.243Z,99.90
2018-12-05T07:51:57.611Z,99.90
2018-12-05T07:54:23.983Z,99.90
2018-12-05T07:56:50.327Z,99.90
2018-12-05T07:59:16.695Z,99.90
2018-12-05T08:01:43.147Z,99.90
2018-12-05T08:04:09.544Z,99.90
2018-12-05T08:06:35.914Z,99.90
2018-12-05T08:09:04.534Z,99.90
2018-12-05T08:11:31.106Z,99.90
2018-12-05T08:13:57.520Z,99.90
2018-12-05T08:16:23.888Z,99.90
2018-12-05T08:18:50.271Z,99.90
2018-12-05T08:21:16.623Z,99.90
2018-12-05T08:23:43.114Z,99.90
2018-12-05T08:26:09.595Z,99.90
2018-12-05T08:28:35.995Z,99.90
2018-12-05T08:31:02.525Z,99.90
2018-12-05T08:33:28.878Z,99.90
2018-12-05T08:35:55.272Z,99.90
2018-12-05T08:38:21.651Z,99.90
2018-12-05T08:40:48.059Z,99.90
2018-12-05T08:43:14.409Z,99.90
2018-12-05T08:45:40.936Z,99.90
2018-12-05T08:48:07.415Z,99.90
2018-12-05T08:50:33.837Z,99.90
2018-12-05T08:53:00.197Z,99.90
2018-12-05T08:55:26.570Z,99.90
2018-12-05T08:57:52.941Z,99.90
2018-12-05T09:00:19.347Z,99.90
2018-12-05T09:02:45.710Z,99.90
2018-12-05T09:05:12.091Z,99.90
2018-12-05T09:07:38.424Z,99.90
2018-12-05T09:10:05.051Z,99.90
2018-12-05T09:12:31.455Z,99.90
2018-12-05T09:14:57.830Z,99.90
2018-12-05T09:17:24.316Z,99.90
2018-12-05T09:19:50.659Z,99.90
2018-12-05T09:22:17.032Z,99.90
2018-12-05T09:24:43.395Z,99.90
2018-12-05T09:27:09.788Z,99.90
2018-12-05T09:29:36.259Z,99.90
2018-12-05T09:32:03.372Z,99.90
2018-12-05T09:34:29.732Z,99.90
2018-12-05T09:36:56.123Z,99.90
2018-12-05T09:39:22.484Z,99.90
2018-12-05T09:41:48.963Z,99.90
2018-12-05T09:44:15.355Z,99.90
2018-12-05T09:46:41.755Z,99.90
2018-12-05T09:49:08.125Z,99.90
2018-12-05T09:51:34.656Z,99.90
2018-12-05T09:54:01.163Z,99.90
2018-12-05T09:56:27.596Z,99.90
2018-12-05T09:58:53.976Z,99.90
2018-12-05T10:01:20.364Z,99.90
2018-12-05T10:03:46.792Z,99.90
2018-12-05T10:06:13.219Z,99.90
2018-12-05T10:08:39.615Z,99.90
2018-12-05T10:11:06.011Z,99.90
2018-12-05T10:13:32.408Z,99.90
2018-12-05T10:15:58.871Z,99.90
2018-12-05T10:18:25.268Z,99.90
2018-12-05T10:20:55.952Z,99.90
2018-12-05T10:23:20.032Z,99.90
2018-12-05T10:25:46.390Z,99.90
2018-12-05T10:28:12.796Z,99.90
2018-12-05T10:30:39.164Z,99.90
2018-12-05T10:33:05.552Z,99.90
2018-12-05T10:35:31.962Z,99.90
2018-12-05T10:37:58.327Z,99.90
2018-12-05T10:40:24.786Z,99.90
2018-12-05T10:42:51.315Z,99.90
2018-12-05T10:45:17.714Z,99.90
2018-12-05T10:47:44.085Z,99.90
2018-12-05T10:50:10.608Z,99.90
2018-12-05T10:52:36.989Z,99.90
2018-12-05T10:55:03.777Z,99.90
2018-12-05T10:57:30.148Z,99.90
2018-12-05T10:59:56.544Z,99.90
2018-12-05T11:02:28.928Z,99.90
2018-12-05T11:05:01.384Z,99.90
2018-12-05T11:07:33.734Z,99.90
2018-12-05T11:10:06.063Z,99.90
2018-12-05T11:12:38.419Z,99.90
2018-12-05T11:15:11.361Z,99.90
2018-12-05T11:17:42.701Z,99.90
2018-12-05T11:20:15.272Z,99.90
2018-12-05T11:22:47.989Z,99.90
2018-12-05T11:25:16.418Z,99.90
2018-12-05T11:27:42.785Z,99.90
2018-12-05T11:30:09.503Z,99.90
2018-12-05T11:32:36.113Z,99.90
2018-12-05T11:35:02.868Z,99.90
2018-12-05T11:37:29.242Z,99.90
2018-12-05T11:39:55.655Z,99.90
2018-12-05T11:42:22.124Z,99.90
2018-12-05T11:44:48.513Z,99.90
2018-12-05T11:47:14.896Z,99.90
2018-12-05T11:49:41.304Z,99.90
2018-12-05T11:52:07.687Z,99.90
2018-12-05T11:54:34.082Z,99.90
2018-12-05T11:57:00.467Z,99.90
2018-12-05T11:59:26.926Z,99.90
2018-12-05T12:01:53.375Z,99.90
2018-12-05T12:04:19.857Z,99.90
2018-12-05T12:06:46.246Z,99.90
2018-12-05T12:09:12.637Z,99.90
2018-12-05T12:11:39.033Z,99.90
2018-12-05T12:14:05.643Z,99.90
2018-12-05T12:16:32.159Z,99.90
2018-12-05T12:18:58.568Z,99.90
2018-12-05T12:21:24.947Z,99.90
2018-12-05T12:23:53.149Z,99.90
2018-12-05T12:26:19.699Z,99.90
2018-12-05T12:28:46.084Z,99.90
2018-12-05T12:31:12.482Z,99.90
2018-12-05T12:33:38.856Z,99.90
2018-12-05T12:36:05.336Z,99.90
2018-12-05T12:38:31.744Z,99.90
2018-12-05T12:40:58.129Z,99.90
2018-12-05T12:43:24.608Z,99.20
2018-12-05T12:45:51.104Z,93.60
2018-12-05T12:48:17.485Z,90.50
2018-12-05T12:50:43.948Z,87.60
2018-12-05T12:53:10.415Z,82.60
2018-12-05T12:55:36.876Z,77.70
2018-12-05T12:58:03.311Z,74.80
2018-12-05T13:00:29.671Z,70.80
2018-12-05T13:02:56.087Z,67.10
2018-12-05T13:05:22.491Z,66.50
2018-12-05T13:07:48.920Z,65.10
2018-12-05T13:10:15.299Z,61.20
2018-12-05T13:12:41.733Z,63.30
2018-12-05T13:15:08.118Z,68.10
2018-12-05T13:17:34.498Z,84.90
2018-12-05T13:20:00.864Z,93.30
2018-12-05T13:22:27.257Z,94.80
2018-12-05T13:24:53.631Z,96.40
2018-12-05T13:27:20.004Z,99.00
2018-12-05T13:29:46.373Z,99.90
2018-12-05T13:32:13.099Z,99.70
2018-12-05T13:34:39.480Z,99.90
2018-12-05T13:37:05.863Z,99.90
2018-12-05T13:39:32.449Z,99.90
2018-12-05T13:41:58.939Z,99.90
2018-12-05T13:44:25.549Z,99.90
2018-12-05T13:46:51.950Z,99.90
2018-12-05T13:49:18.339Z,98.80
2018-12-05T13:51:44.707Z,98.70
2018-12-05T13:54:11.083Z,99.40
2018-12-05T13:56:37.620Z,99.90
2018-12-05T13:59:04.119Z,99.90
2018-12-05T14:01:30.671Z,99.90
2018-12-05T14:03:57.104Z,99.90
2018-12-05T14:06:23.453Z,99.90
2018-12-05T14:08:49.835Z,99.90
2018-12-05T14:11:16.312Z,99.90
2018-12-05T14:13:42.679Z,99.90
2018-12-05T14:16:09.171Z,99.90
2018-12-05T14:18:35.580Z,99.90
2018-12-05T14:21:01.942Z,99.90
2018-12-05T14:23:28.287Z,99.90
2018-12-05T14:25:54.689Z,99.90
2018-12-05T14:28:21.047Z,99.90
2018-12-05T14:30:47.415Z,99.90
2018-12-05T14:33:13.808Z,99.90
2018-12-05T14:35:40.363Z,99.90
2018-12-05T14:38:06.785Z,99.90
2018-12-05T14:40:33.259Z,99.90
2018-12-05T14:42:59.645Z,99.90
2018-12-05T14:45:26.011Z,99.90
2018-12-05T14:47:52.376Z,99.90
2018-12-05T14:50:19.011Z,99.90
2018-12-05T14:52:45.409Z,99.90
2018-12-05T14:55:11.910Z,99.90
2018-12-05T14:57:38.283Z,99.90
2018-12-05T15:00:07.021Z,99.90
2018-12-05T15:02:33.395Z,99.90
2018-12-05T15:04:59.885Z,99.90
2018-12-05T15:07:26.251Z,99.90
2018-12-05T15:09:52.694Z,99.90
2018-12-05T15:12:19.084Z,99.90
2018-12-05T15:14:45.469Z,99.90
2018-12-05T15:17:11.819Z,99.90
2018-12-05T15:19:38.217Z,99.90
2018-12-05T15:22:04.649Z,99.90
2018-12-05T15:24:31.138Z,99.90
2018-12-05T15:26:57.614Z,99.90
2018-12-05T15:29:25.675Z,99.90
2018-12-05T15:31:52.408Z,99.90
2018-12-05T15:34:18.981Z,99.90
2018-12-05T15:36:45.427Z,99.90
2018-12-05T15:39:11.795Z,99.90
2018-12-05T15:41:38.179Z,99.90
2018-12-05T15:44:04.745Z,99.90
2018-12-05T15:46:31.280Z,99.90
2018-12-05T15:48:57.683Z,99.90
2018-12-05T15:51:24.093Z,99.90
2018-12-05T15:53:50.534Z,99.90
2018-12-05T15:56:17.121Z,99.90
2018-12-05T15:58:43.519Z,99.90
2018-12-05T16:01:09.874Z,99.90
2018-12-05T16:03:42.942Z,99.90
2018-12-05T16:06:04.770Z,99.90
2018-12-05T16:08:31.140Z,99.90
2018-12-05T16:10:57.540Z,99.90
2018-12-05T16:13:23.911Z,99.90
2018-12-05T16:15:50.283Z,99.90
2018-12-05T16:18:16.668Z,99.90
2018-12-05T16:20:43.050Z,99.90
2018-12-05T16:23:09.500Z,99.90
2018-12-05T16:25:35.883Z,99.90
2018-12-05T16:28:02.331Z,99.90
2018-12-05T16:30:29.259Z,99.90
2018-12-05T16:32:55.614Z,99.90
2018-12-05T16:35:21.976Z,99.90
2018-12-05T16:37:48.354Z,99.90
2018-12-05T16:40:14.727Z,99.90
2018-12-05T16:42:41.099Z,99.90
2018-12-05T16:45:07.622Z,99.90
2018-12-05T16:47:33.997Z,99.90
2018-12-05T16:50:00.367Z,99.90
2018-12-05T16:52:26.758Z,99.90
2018-12-05T16:54:53.804Z,99.90
2018-12-05T16:57:20.366Z,99.90
2018-12-05T16:59:46.879Z,99.90
2018-12-05T17:02:13.287Z,99.90
2018-12-05T17:04:39.655Z,99.90
2018-12-05T17:07:06.678Z,99.90
2018-12-05T17:09:33.288Z,99.90
2018-12-05T17:11:59.853Z,99.90
2018-12-05T17:14:27.099Z,99.90
2018-12-05T17:16:53.654Z,99.90
2018-12-05T17:19:20.086Z,99.90
2018-12-05T17:21:46.464Z,99.90
2018-12-05T17:24:12.851Z,99.90
2018-12-05T17:26:39.346Z,99.90
2018-12-05T17:29:05.812Z,99.90
2018-12-05T17:31:32.151Z,99.90
2018-12-05T17:33:58.640Z,99.90
2018-12-05T17:36:25.001Z,99.90
2018-12-05T17:38:51.383Z,99.90
2018-12-05T17:41:17.730Z,99.90
2018-12-05T17:43:44.127Z,99.90
2018-12-05T17:46:10.515Z,99.90
2018-12-05T17:48:36.850Z,99.90
2018-12-05T17:51:03.328Z,99.90
2018-12-05T17:53:30.916Z,99.90
2018-12-05T17:55:57.426Z,99.90
2018-12-05T17:58:23.782Z,99.90
2018-12-05T18:00:50.195Z,99.90
2018-12-05T18:03:16.630Z,99.90
2018-12-05T18:05:43.217Z,99.90
2018-12-05T18:08:09.711Z,99.90
2018-12-05T18:10:36.186Z,99.90
2018-12-05T18:13:02.575Z,99.90
2018-12-05T18:15:29.006Z,99.90
2018-12-05T18:17:55.396Z,99.90
2018-12-05T18:20:21.894Z,99.90
2018-12-05T18:22:48.291Z,99.90
2018-12-05T18:25:14.689Z,99.90
2018-12-05T18:27:41.095Z,99.90
2018-12-05T18:30:07.725Z,99.90
2018-12-05T18:32:34.146Z,99.90
2018-12-05T18:35:00.512Z,99.90
2018-12-05T18:37:26.933Z,99.90
2018-12-05T18:39:53.309Z,99.90
2018-12-05T18:42:19.822Z,99.90
2018-12-05T18:44:46.309Z,99.90
2018-12-05T18:47:12.803Z,99.90
2018-12-05T18:49:39.226Z,99.90
2018-12-05T18:52:05.771Z,99.90
2018-12-05T18:54:32.191Z,99.90
2018-12-05T18:56:58.603Z,99.90
2018-12-05T18:59:24.988Z,99.90
2018-12-05T19:01:51.437Z,99.90
2018-12-05T19:04:17.839Z,99.90
2018-12-05T19:06:44.207Z,99.90
2018-12-05T19:09:10.763Z,99.90
2018-12-05T19:11:37.486Z,99.90
2018-12-05T19:14:09.974Z,99.90
2018-12-05T19:16:36.369Z,99.90
2018-12-05T19:19:02.904Z,99.90
2018-12-05T19:21:29.267Z,99.90
2018-12-05T19:23:55.679Z,99.90
2018-12-05T19:26:22.048Z,99.90
2018-12-05T19:28:48.516Z,99.90
2018-12-05T19:31:19.350Z,99.90
2018-12-05T19:33:43.428Z,99.90
2018-12-05T19:36:09.903Z,99.90
2018-12-05T19:38:36.397Z,99.90
2018-12-05T19:41:02.868Z,99.90
2018-12-05T19:43:29.227Z,99.90
2018-12-05T19:45:55.602Z,99.90
2018-12-05T19:48:21.977Z,99.90
2018-12-05T19:50:48.372Z,99.90
2018-12-05T19:53:14.763Z,99.90
2018-12-05T19:55:41.153Z,99.90
2018-12-05T19:58:07.527Z,99.90
2018-12-05T20:00:33.920Z,99.90
2018-12-05T20:03:00.386Z,99.90
2018-12-05T20:05:26.781Z,99.90
2018-12-05T20:07:53.160Z,99.90
2018-12-05T20:10:19.569Z,99.90
2018-12-05T20:12:45.968Z,99.90
2018-12-05T20:15:12.341Z,99.90
2018-12-05T20:17:38.814Z,99.90
2018-12-05T20:20:06.623Z,99.90
2018-12-05T20:22:33.624Z,99.90
2018-12-05T20:25:00.226Z,99.90
2018-12-05T20:27:26.603Z,99.90
2018-12-05T20:29:52.963Z,99.90
2018-12-05T20:32:19.349Z,99.90
2018-12-05T20:34:45.739Z,99.90
2018-12-05T20:37:12.113Z,99.90
2018-12-05T20:39:38.500Z,99.90
2018-12-05T20:42:05.011Z,99.90
2018-12-05T20:44:38.427Z,99.90
2018-12-05T20:47:04.805Z,99.90
2018-12-05T20:49:31.195Z,99.90
2018-12-05T20:51:57.581Z,99.90
2018-12-05T20:54:23.965Z,99.90
2018-12-05T20:56:50.356Z,99.90
2018-12-05T20:59:16.780Z,99.90
2018-12-05T21:01:43.306Z,99.90
2018-12-05T21:04:09.681Z,99.90
2018-12-05T21:06:36.079Z,99.90
2018-12-05T21:09:05.787Z,99.90
2018-12-05T21:11:32.177Z,99.90
2018-12-05T21:13:58.595Z,99.90
2018-12-05T21:16:25.103Z,99.90
2018-12-05T21:18:51.485Z,99.90
2018-12-05T21:21:17.867Z,99.90
2018-12-05T21:23:44.222Z,99.90
2018-12-05T21:26:10.602Z,99.90
2018-12-05T21:28:36.962Z,99.90
2018-12-05T21:31:03.483Z,99.90
2018-12-05T21:33:29.843Z,99.90
2018-12-05T21:36:34.352Z,99.90
2018-12-05T21:39:00.702Z,99.90
2018-12-05T21:41:27.112Z,99.90
2018-12-05T21:43:53.478Z,99.90
2018-12-05T21:46:19.865Z,99.90
2018-12-05T21:48:46.235Z,99.90
2018-12-05T21:51:19.862Z,99.90
2018-12-05T21:53:46.241Z,99.90
2018-12-05T21:56:12.619Z,99.90
2018-12-05T21:58:39.012Z,99.90
2018-12-05T22:01:05.376Z,99.90
2018-12-05T22:03:31.775Z,99.90
2018-12-05T22:05:58.156Z,99.90
2018-12-05T22:08:24.907Z,99.90
2018-12-05T22:10:51.275Z,99.90
2018-12-05T22:13:17.651Z,99.90
2018-12-05T22:15:44.010Z,99.90
2018-12-05T22:18:10.471Z,99.90
2018-12-05T22:20:36.872Z,99.90
2018-12-05T22:23:03.323Z,99.90
2018-12-05T22:25:29.675Z,99.90
2018-12-05T22:27:56.045Z,99.90
2018-12-05T22:30:22.547Z,99.90
2018-12-05T22:32:48.922Z,99.90
2018-12-05T22:35:15.416Z,99.90
2018-12-05T22:37:41.807Z,99.90
2018-12-05T22:40:08.436Z,99.90
2018-12-05T22:42:34.907Z,99.90
2018-12-05T22:45:01.574Z,99.90
2018-12-05T22:47:27.964Z,99.90
2018-12-05T22:49:54.372Z,99.90
2018-12-05T22:52:20.746Z,99.90
2018-12-05T22:54:47.110Z,99.90
2018-12-05T22:57:13.540Z,99.90
2018-12-05T22:59:40.462Z,99.90
2018-12-05T23:02:06.990Z,99.90
2018-12-05T23:04:33.398Z,99.90
2018-12-05T23:06:59.816Z,99.90
2018-12-05T23:09:26.192Z,99.90
2018-12-05T23:11:52.630Z,99.90
2018-12-05T23:14:19.026Z,99.90
2018-12-05T23:16:45.425Z,99.90
2018-12-05T23:19:12.049Z,99.90
2018-12-05T23:21:38.441Z,99.90
2018-12-05T23:24:04.844Z,99.90
2018-12-05T23:26:31.224Z,99.90
2018-12-05T23:28:57.627Z,99.90
2018-12-05T23:31:23.995Z,99.90
2018-12-05T23:33:50.379Z,99.90
2018-12-05T23:36:16.751Z,99.90
2018-12-05T23:38:43.516Z,99.90
2018-12-05T23:41:09.890Z,99.90
2018-12-05T23:43:36.303Z,99.90
2018-12-05T23:46:02.689Z,99.90
2018-12-05T23:48:29.092Z,99.90
2018-12-05T23:50:55.479Z,99.90
2018-12-05T23:53:21.850Z,99.90
2018-12-05T23:55:48.256Z,99.90
2018-12-05T23:58:14.625Z,99.90
